sensor_id;sensor_type;location;lat;lon;timestamp;temperature;humidity
12967;DHT22;6548;49.996;8.238;2022-07-06T00:00:19;17.70;99.90
12967;DHT22;6548;49.996;8.238;2022-07-06T00:02:45;17.70;99.90
12967;DHT22;6548;49.996;8.238;2022-07-06T00:05:10;17.60;99.90
12967;DHT22;6548;49.996;8.238;2022-07-06T00:07:36;17.60;99.90
12967;DHT22;6548;49.996;8.238;2022-07-06T00:10:02;18.00;99.90
12967;DHT22;6548;49.996;8.238;2022-07-06T00:12:28;17.60;99.90
12967;DHT22;6548;49.996;8.238;2022-07-06T00:14:53;17.50;99.90
12967;DHT22;6548;49.996;8.238;2022-07-06T00:17:19;17.50;99.90
12967;DHT22;6548;49.996;8.238;2022-07-06T00:19:45;17.40;99.90
12967;DHT22;6548;49.996;8.238;2022-07-06T00:22:10;17.40;99.90
12967;DHT22;6548;49.996;8.238;2022-07-06T00:24:37;17.30;99.90
12967;DHT22;6548;49.996;8.238;2022-07-06T00:27:02;17.30;99.90
12967;DHT22;6548;49.996;8.238;2022-07-06T00:29:28;17.30;99.90
12967;DHT22;6548;49.996;8.238;2022-07-06T00:31:55;17.30;99.90
12967;DHT22;6548;49.996;8.238;2022-07-06T00:34:21;17.30;99.90
12967;DHT22;6548;49.996;8.238;2022-07-06T00:36:47;18.40;99.90
12967;DHT22;6548;49.996;8.238;2022-07-06T00:39:12;17.20;99.90
12967;DHT22;6548;49.996;8.238;2022-07-06T00:41:38;17.10;99.90
12967;DHT22;6548;49.996;8.238;2022-07-06T00:44:08;18.10;99.90
12967;DHT22;6548;49.996;8.238;2022-07-06T00:46:34;17.50;99.90
12967;DHT22;6548;49.996;8.238;2022-07-06T00:49:00;17.40;99.90
12967;DHT22;6548;49.996;8.238;2022-07-06T00:51:30;16.90;99.90
12967;DHT22;6548;49.996;8.238;2022-07-06T00:53:59;18.30;99.90
12967;DHT22;6548;49.996;8.238;2022-07-06T00:56:25;16.90;99.90
12967;DHT22;6548;49.996;8.238;2022-07-06T00:58:52;18.20;99.90
12967;DHT22;6548;49.996;8.238;2022-07-06T01:01:18;16.80;99.90
12967;DHT22;6548;49.996;8.238;2022-07-06T01:03:43;17.20;99.90
12967;DHT22;6548;49.996;8.238;2022-07-06T01:06:10;17.70;99.90
12967;DHT22;6548;49.996;8.238;2022-07-06T01:08:36;17.90;99.90
12967;DHT22;6548;49.996;8.238;2022-07-06T01:11:01;16.70;99.90
12967;DHT22;6548;49.996;8.238;2022-07-06T01:13:31;17.60;99.90
12967;DHT22;6548;49.996;8.238;2022-07-06T01:15:58;17.80;99.90
12967;DHT22;6548;49.996;8.238;2022-07-06T01:18:24;16.40;99.90
12967;DHT22;6548;49.996;8.238;2022-07-06T01:20:50;16.40;99.90
12967;DHT22;6548;49.996;8.238;2022-07-06T01:23:15;17.30;99.90
12967;DHT22;6548;49.996;8.238;2022-07-06T01:25:41;16.30;99.90
12967;DHT22;6548;49.996;8.238;2022-07-06T01:28:07;17.70;99.90
12967;DHT22;6548;49.996;8.238;2022-07-06T01:30:33;16.50;99.90
12967;DHT22;6548;49.996;8.238;2022-07-06T01:33:10;16.30;99.90
12967;DHT22;6548;49.996;8.238;2022-07-06T01:38:59;16.20;99.90
12967;DHT22;6548;49.996;8.238;2022-07-06T01:44:40;16.60;99.90
12967;DHT22;6548;49.996;8.238;2022-07-06T02:07:13;15.90;99.90
12967;DHT22;6548;49.996;8.238;2022-07-06T02:09:38;15.90;99.90
12967;DHT22;6548;49.996;8.238;2022-07-06T02:12:04;15.80;99.90
12967;DHT22;6548;49.996;8.238;2022-07-06T02:14:30;15.80;99.90
12967;DHT22;6548;49.996;8.238;2022-07-06T02:16:56;15.70;99.90
12967;DHT22;6548;49.996;8.238;2022-07-06T02:19:21;15.70;99.90
12967;DHT22;6548;49.996;8.238;2022-07-06T02:21:47;16.60;99.90
12967;DHT22;6548;49.996;8.238;2022-07-06T02:24:12;15.70;99.90
12967;DHT22;6548;49.996;8.238;2022-07-06T02:26:38;15.70;99.90
12967;DHT22;6548;49.996;8.238;2022-07-06T02:29:04;15.70;99.90
12967;DHT22;6548;49.996;8.238;2022-07-06T02:31:29;15.70;99.90
12967;DHT22;6548;49.996;8.238;2022-07-06T02:33:55;15.60;99.90
12967;DHT22;6548;49.996;8.238;2022-07-06T02:36:20;15.60;99.90
12967;DHT22;6548;49.996;8.238;2022-07-06T02:38:46;15.60;99.90
12967;DHT22;6548;49.996;8.238;2022-07-06T02:41:12;15.70;99.90
12967;DHT22;6548;49.996;8.238;2022-07-06T02:43:38;15.50;99.90
12967;DHT22;6548;49.996;8.238;2022-07-06T02:46:04;15.50;99.90
12967;DHT22;6548;49.996;8.238;2022-07-06T02:48:30;15.40;99.90
12967;DHT22;6548;49.996;8.238;2022-07-06T02:50:55;15.40;99.90
12967;DHT22;6548;49.996;8.238;2022-07-06T02:53:21;16.20;99.90
12967;DHT22;6548;49.996;8.238;2022-07-06T02:55:46;15.40;99.90
12967;DHT22;6548;49.996;8.238;2022-07-06T02:58:12;15.40;99.90
12967;DHT22;6548;49.996;8.238;2022-07-06T03:00:38;15.20;99.90
12967;DHT22;6548;49.996;8.238;2022-07-06T03:03:03;15.80;99.90
12967;DHT22;6548;49.996;8.238;2022-07-06T03:05:29;15.20;99.90
12967;DHT22;6548;49.996;8.238;2022-07-06T03:07:54;15.80;99.90
12967;DHT22;6548;49.996;8.238;2022-07-06T03:10:20;15.00;99.90
12967;DHT22;6548;49.996;8.238;2022-07-06T03:12:45;15.30;99.90
12967;DHT22;6548;49.996;8.238;2022-07-06T03:15:11;15.00;99.90
12967;DHT22;6548;49.996;8.238;2022-07-06T03:17:38;15.00;99.90
12967;DHT22;6548;49.996;8.238;2022-07-06T03:20:04;15.10;99.90
12967;DHT22;6548;49.996;8.238;2022-07-06T03:22:30;15.00;99.90
12967;DHT22;6548;49.996;8.238;2022-07-06T03:24:56;16.20;99.90
12967;DHT22;6548;49.996;8.238;2022-07-06T03:27:22;14.90;99.90
12967;DHT22;6548;49.996;8.238;2022-07-06T03:29:47;14.90;99.90
12967;DHT22;6548;49.996;8.238;2022-07-06T03:32:13;14.90;99.90
12967;DHT22;6548;49.996;8.238;2022-07-06T03:34:38;14.90;99.90
12967;DHT22;6548;49.996;8.238;2022-07-06T03:37:04;14.80;99.90
12967;DHT22;6548;49.996;8.238;2022-07-06T03:39:31;14.80;99.90
12967;DHT22;6548;49.996;8.238;2022-07-06T03:41:56;14.80;99.90
12967;DHT22;6548;49.996;8.238;2022-07-06T03:44:22;14.80;99.90
12967;DHT22;6548;49.996;8.238;2022-07-06T03:46:47;14.80;99.90
12967;DHT22;6548;49.996;8.238;2022-07-06T03:49:13;14.80;99.90
12967;DHT22;6548;49.996;8.238;2022-07-06T03:51:39;14.80;99.90
12967;DHT22;6548;49.996;8.238;2022-07-06T03:54:05;15.00;99.90
12967;DHT22;6548;49.996;8.238;2022-07-06T03:56:31;14.80;99.90
12967;DHT22;6548;49.996;8.238;2022-07-06T03:58:59;14.60;99.90
12967;DHT22;6548;49.996;8.238;2022-07-06T04:01:26;15.80;99.90
12967;DHT22;6548;49.996;8.238;2022-07-06T04:03:52;15.80;99.90
12967;DHT22;6548;49.996;8.238;2022-07-06T04:06:18;15.30;99.90
12967;DHT22;6548;49.996;8.238;2022-07-06T04:08:43;14.80;99.90
12967;DHT22;6548;49.996;8.238;2022-07-06T04:11:09;16.10;99.90
12967;DHT22;6548;49.996;8.238;2022-07-06T04:13:35;15.40;99.90
12967;DHT22;6548;49.996;8.238;2022-07-06T04:16:00;16.00;99.90
12967;DHT22;6548;49.996;8.238;2022-07-06T04:18:26;14.80;99.90
12967;DHT22;6548;49.996;8.238;2022-07-06T04:20:51;14.80;99.90
12967;DHT22;6548;49.996;8.238;2022-07-06T04:23:17;14.80;99.90
12967;DHT22;6548;49.996;8.238;2022-07-06T04:25:43;14.70;99.90
12967;DHT22;6548;49.996;8.238;2022-07-06T04:28:09;14.80;99.90
12967;DHT22;6548;49.996;8.238;2022-07-06T04:30:35;14.80;99.90
12967;DHT22;6548;49.996;8.238;2022-07-06T04:33:00;15.70;99.90
12967;DHT22;6548;49.996;8.238;2022-07-06T04:35:26;14.80;99.90
12967;DHT22;6548;49.996;8.238;2022-07-06T04:37:52;14.90;99.90
12967;DHT22;6548;49.996;8.238;2022-07-06T04:40:17;14.90;99.90
12967;DHT22;6548;49.996;8.238;2022-07-06T04:42:43;14.90;99.90
12967;DHT22;6548;49.996;8.238;2022-07-06T04:45:09;14.90;99.90
12967;DHT22;6548;49.996;8.238;2022-07-06T04:47:35;14.90;99.90
12967;DHT22;6548;49.996;8.238;2022-07-06T04:50:04;15.00;99.90
12967;DHT22;6548;49.996;8.238;2022-07-06T04:52:30;15.00;99.90
12967;DHT22;6548;49.996;8.238;2022-07-06T04:54:56;15.80;99.90
12967;DHT22;6548;49.996;8.238;2022-07-06T04:57:24;15.10;99.90
12967;DHT22;6548;49.996;8.238;2022-07-06T04:59:55;14.60;99.90
12967;DHT22;6548;49.996;8.238;2022-07-06T05:02:21;15.10;99.90
12967;DHT22;6548;49.996;8.238;2022-07-06T05:04:46;15.10;99.90
12967;DHT22;6548;49.996;8.238;2022-07-06T05:07:12;15.10;99.90
12967;DHT22;6548;49.996;8.238;2022-07-06T05:09:37;15.20;99.90
12967;DHT22;6548;49.996;8.238;2022-07-06T05:12:03;15.80;99.90
12967;DHT22;6548;49.996;8.238;2022-07-06T05:14:29;15.40;99.90
12967;DHT22;6548;49.996;8.238;2022-07-06T05:16:54;15.50;99.90
12967;DHT22;6548;49.996;8.238;2022-07-06T05:19:20;15.60;99.90
12967;DHT22;6548;49.996;8.238;2022-07-06T05:21:45;15.70;99.90
12967;DHT22;6548;49.996;8.238;2022-07-06T05:24:11;15.70;99.90
12967;DHT22;6548;49.996;8.238;2022-07-06T05:26:36;15.90;99.90
12967;DHT22;6548;49.996;8.238;2022-07-06T05:29:02;15.50;99.90
12967;DHT22;6548;49.996;8.238;2022-07-06T05:31:28;15.60;99.90
12967;DHT22;6548;49.996;8.238;2022-07-06T05:33:53;15.70;99.90
12967;DHT22;6548;49.996;8.238;2022-07-06T05:36:19;15.80;99.90
12967;DHT22;6548;49.996;8.238;2022-07-06T05:38:45;16.80;99.90
12967;DHT22;6548;49.996;8.238;2022-07-06T05:41:12;16.00;99.90
12967;DHT22;6548;49.996;8.238;2022-07-06T05:43:38;15.90;99.90
12967;DHT22;6548;49.996;8.238;2022-07-06T05:46:04;16.20;99.90
12967;DHT22;6548;49.996;8.238;2022-07-06T05:48:30;16.20;99.90
12967;DHT22;6548;49.996;8.238;2022-07-06T05:51:14;16.30;99.90
12967;DHT22;6548;49.996;8.238;2022-07-06T05:53:40;16.50;99.90
12967;DHT22;6548;49.996;8.238;2022-07-06T05:56:16;16.50;99.90
12967;DHT22;6548;49.996;8.238;2022-07-06T05:58:42;16.70;99.90
12967;DHT22;6548;49.996;8.238;2022-07-06T06:01:09;16.70;99.90
12967;DHT22;6548;49.996;8.238;2022-07-06T06:03:36;16.60;99.90
12967;DHT22;6548;49.996;8.238;2022-07-06T06:06:03;16.90;99.90
12967;DHT22;6548;49.996;8.238;2022-07-06T06:08:33;16.80;99.90
12967;DHT22;6548;49.996;8.238;2022-07-06T06:10:59;17.00;99.90
12967;DHT22;6548;49.996;8.238;2022-07-06T06:13:24;17.00;99.90
12967;DHT22;6548;49.996;8.238;2022-07-06T06:15:50;17.10;99.90
12967;DHT22;6548;49.996;8.238;2022-07-06T06:18:15;17.30;99.90
12967;DHT22;6548;49.996;8.238;2022-07-06T06:20:44;17.40;99.90
12967;DHT22;6548;49.996;8.238;2022-07-06T06:23:10;17.90;99.90
12967;DHT22;6548;49.996;8.238;2022-07-06T06:25:39;18.30;99.90
12967;DHT22;6548;49.996;8.238;2022-07-06T06:28:07;18.60;99.90
12967;DHT22;6548;49.996;8.238;2022-07-06T06:30:33;19.00;99.90
12967;DHT22;6548;49.996;8.238;2022-07-06T06:33:12;19.30;99.90
12967;DHT22;6548;49.996;8.238;2022-07-06T06:35:42;19.60;99.90
12967;DHT22;6548;49.996;8.238;2022-07-06T06:38:08;20.20;99.90
12967;DHT22;6548;49.996;8.238;2022-07-06T06:40:34;20.40;99.90
12967;DHT22;6548;49.996;8.238;2022-07-06T06:42:59;20.80;99.90
12967;DHT22;6548;49.996;8.238;2022-07-06T06:45:25;20.70;99.90
12967;DHT22;6548;49.996;8.238;2022-07-06T06:47:50;20.90;99.90
12967;DHT22;6548;49.996;8.238;2022-07-06T06:50:16;20.60;99.90
12967;DHT22;6548;49.996;8.238;2022-07-06T06:52:42;20.80;99.90
12967;DHT22;6548;49.996;8.238;2022-07-06T06:55:08;21.10;99.90
12967;DHT22;6548;49.996;8.238;2022-07-06T06:57:34;21.50;99.90
12967;DHT22;6548;49.996;8.238;2022-07-06T06:59:59;21.70;99.90
12967;DHT22;6548;49.996;8.238;2022-07-06T07:02:25;21.90;99.90
12967;DHT22;6548;49.996;8.238;2022-07-06T07:04:50;22.50;99.90
12967;DHT22;6548;49.996;8.238;2022-07-06T07:07:16;22.70;99.90
12967;DHT22;6548;49.996;8.238;2022-07-06T07:09:42;23.00;99.90
12967;DHT22;6548;49.996;8.238;2022-07-06T07:12:07;23.30;99.90
12967;DHT22;6548;49.996;8.238;2022-07-06T07:14:33;23.60;99.90
12967;DHT22;6548;49.996;8.238;2022-07-06T07:16:58;23.40;99.90
12967;DHT22;6548;49.996;8.238;2022-07-06T07:19:24;23.50;99.90
12967;DHT22;6548;49.996;8.238;2022-07-06T07:21:49;23.60;99.90
12967;DHT22;6548;49.996;8.238;2022-07-06T07:24:15;23.90;99.90
12967;DHT22;6548;49.996;8.238;2022-07-06T07:26:40;23.00;99.90
12967;DHT22;6548;49.996;8.238;2022-07-06T07:29:06;22.90;99.90
12967;DHT22;6548;49.996;8.238;2022-07-06T07:31:32;22.50;99.90
12967;DHT22;6548;49.996;8.238;2022-07-06T07:33:57;21.80;99.90
12967;DHT22;6548;49.996;8.238;2022-07-06T07:36:24;21.60;99.90
12967;DHT22;6548;49.996;8.238;2022-07-06T07:38:50;21.60;99.90
12967;DHT22;6548;49.996;8.238;2022-07-06T07:41:16;21.80;99.90
12967;DHT22;6548;49.996;8.238;2022-07-06T07:43:42;22.00;99.90
12967;DHT22;6548;49.996;8.238;2022-07-06T07:46:08;21.90;99.90
12967;DHT22;6548;49.996;8.238;2022-07-06T07:48:33;21.70;99.90
12967;DHT22;6548;49.996;8.238;2022-07-06T07:50:59;21.50;99.90
12967;DHT22;6548;49.996;8.238;2022-07-06T07:53:24;21.50;99.90
12967;DHT22;6548;49.996;8.238;2022-07-06T07:55:50;21.80;99.90
12967;DHT22;6548;49.996;8.238;2022-07-06T07:58:15;22.50;99.90
12967;DHT22;6548;49.996;8.238;2022-07-06T08:00:41;23.00;99.90
12967;DHT22;6548;49.996;8.238;2022-07-06T08:03:06;23.30;99.90
12967;DHT22;6548;49.996;8.238;2022-07-06T08:05:32;23.30;99.90
12967;DHT22;6548;49.996;8.238;2022-07-06T08:08:00;23.10;99.90
12967;DHT22;6548;49.996;8.238;2022-07-06T08:10:25;23.10;99.90
12967;DHT22;6548;49.996;8.238;2022-07-06T08:12:51;23.30;99.90
12967;DHT22;6548;49.996;8.238;2022-07-06T08:15:17;23.30;99.90
12967;DHT22;6548;49.996;8.238;2022-07-06T08:17:42;23.50;99.90
12967;DHT22;6548;49.996;8.238;2022-07-06T08:20:08;23.20;99.90
12967;DHT22;6548;49.996;8.238;2022-07-06T08:22:37;23.30;99.90
12967;DHT22;6548;49.996;8.238;2022-07-06T08:25:03;23.50;99.90
12967;DHT22;6548;49.996;8.238;2022-07-06T08:27:29;24.10;99.90
12967;DHT22;6548;49.996;8.238;2022-07-06T08:29:54;24.20;99.90
12967;DHT22;6548;49.996;8.238;2022-07-06T08:32:20;23.80;99.90
12967;DHT22;6548;49.996;8.238;2022-07-06T08:34:46;23.80;99.90
12967;DHT22;6548;49.996;8.238;2022-07-06T08:37:12;23.80;99.90
12967;DHT22;6548;49.996;8.238;2022-07-06T08:39:37;24.40;99.90
12967;DHT22;6548;49.996;8.238;2022-07-06T08:42:03;23.90;99.90
12967;DHT22;6548;49.996;8.238;2022-07-06T08:44:29;23.90;99.90
12967;DHT22;6548;49.996;8.238;2022-07-06T08:46:57;24.20;99.90
12967;DHT22;6548;49.996;8.238;2022-07-06T08:49:23;24.00;99.90
12967;DHT22;6548;49.996;8.238;2022-07-06T08:51:50;24.20;99.90
12967;DHT22;6548;49.996;8.238;2022-07-06T08:54:17;24.40;99.90
12967;DHT22;6548;49.996;8.238;2022-07-06T08:56:43;25.00;99.90
12967;DHT22;6548;49.996;8.238;2022-07-06T08:59:09;25.00;99.90
12967;DHT22;6548;49.996;8.238;2022-07-06T09:01:38;25.20;99.90
12967;DHT22;6548;49.996;8.238;2022-07-06T09:04:05;26.10;99.90
12967;DHT22;6548;49.996;8.238;2022-07-06T09:06:33;26.30;99.90
12967;DHT22;6548;49.996;8.238;2022-07-06T09:08:59;25.80;99.90
12967;DHT22;6548;49.996;8.238;2022-07-06T09:11:26;24.90;99.90
12967;DHT22;6548;49.996;8.238;2022-07-06T09:13:52;24.70;99.90
12967;DHT22;6548;49.996;8.238;2022-07-06T09:16:26;24.50;99.90
12967;DHT22;6548;49.996;8.238;2022-07-06T09:18:52;25.10;99.90
12967;DHT22;6548;49.996;8.238;2022-07-06T09:21:31;25.30;99.90
12967;DHT22;6548;49.996;8.238;2022-07-06T09:23:59;24.80;99.90
12967;DHT22;6548;49.996;8.238;2022-07-06T09:26:25;24.30;99.90
12967;DHT22;6548;49.996;8.238;2022-07-06T09:28:51;24.60;99.90
12967;DHT22;6548;49.996;8.238;2022-07-06T09:31:17;24.40;99.90
12967;DHT22;6548;49.996;8.238;2022-07-06T09:41:40;25.70;99.90
12967;DHT22;6548;49.996;8.238;2022-07-06T09:44:06;26.00;99.90
12967;DHT22;6548;49.996;8.238;2022-07-06T09:46:42;25.90;99.90
12967;DHT22;6548;49.996;8.238;2022-07-06T09:49:08;26.60;99.90
12967;DHT22;6548;49.996;8.238;2022-07-06T09:51:37;26.00;99.90
12967;DHT22;6548;49.996;8.238;2022-07-06T09:54:07;25.70;99.90
12967;DHT22;6548;49.996;8.238;2022-07-06T09:56:38;25.30;99.90
12967;DHT22;6548;49.996;8.238;2022-07-06T09:59:11;25.80;99.90
12967;DHT22;6548;49.996;8.238;2022-07-06T10:01:38;26.30;99.90
12967;DHT22;6548;49.996;8.238;2022-07-06T10:04:08;26.80;99.90
12967;DHT22;6548;49.996;8.238;2022-07-06T10:06:35;25.80;99.90
12967;DHT22;6548;49.996;8.238;2022-07-06T10:09:01;25.30;99.90
12967;DHT22;6548;49.996;8.238;2022-07-06T10:11:28;24.40;99.90
12967;DHT22;6548;49.996;8.238;2022-07-06T10:13:56;24.50;99.90
12967;DHT22;6548;49.996;8.238;2022-07-06T10:16:25;24.70;99.90
12967;DHT22;6548;49.996;8.238;2022-07-06T10:18:52;25.10;99.90
12967;DHT22;6548;49.996;8.238;2022-07-06T10:21:23;24.80;99.90
12967;DHT22;6548;49.996;8.238;2022-07-06T10:23:50;25.80;99.90
12967;DHT22;6548;49.996;8.238;2022-07-06T10:26:17;26.80;99.90
12967;DHT22;6548;49.996;8.238;2022-07-06T10:28:44;26.90;99.90
12967;DHT22;6548;49.996;8.238;2022-07-06T10:31:11;26.90;99.20
12967;DHT22;6548;49.996;8.238;2022-07-06T10:33:38;26.20;97.50
12967;DHT22;6548;49.996;8.238;2022-07-06T10:36:04;26.40;98.80
12967;DHT22;6548;49.996;8.238;2022-07-06T10:38:32;26.30;98.10
12967;DHT22;6548;49.996;8.238;2022-07-06T10:41:05;26.80;99.20
12967;DHT22;6548;49.996;8.238;2022-07-06T10:43:42;27.60;97.40
12967;DHT22;6548;49.996;8.238;2022-07-06T10:46:10;26.30;99.50
12967;DHT22;6548;49.996;8.238;2022-07-06T10:48:41;27.90;98.50
12967;DHT22;6548;49.996;8.238;2022-07-06T10:51:08;27.50;98.40
12967;DHT22;6548;49.996;8.238;2022-07-06T10:53:35;26.90;98.60
12967;DHT22;6548;49.996;8.238;2022-07-06T10:58:50;26.40;98.60
12967;DHT22;6548;49.996;8.238;2022-07-06T11:01:18;26.30;99.20
12967;DHT22;6548;49.996;8.238;2022-07-06T11:06:23;26.50;98.80
12967;DHT22;6548;49.996;8.238;2022-07-06T11:09:00;26.30;98.60
12967;DHT22;6548;49.996;8.238;2022-07-06T11:14:00;25.60;98.50
12967;DHT22;6548;49.996;8.238;2022-07-06T11:16:30;26.00;98.70
12967;DHT22;6548;49.996;8.238;2022-07-06T11:19:15;26.90;97.80
12967;DHT22;6548;49.996;8.238;2022-07-06T11:21:55;27.50;97.10
12967;DHT22;6548;49.996;8.238;2022-07-06T11:24:28;28.10;95.80
12967;DHT22;6548;49.996;8.238;2022-07-06T11:26:54;29.00;95.50
12967;DHT22;6548;49.996;8.238;2022-07-06T11:29:22;29.00;94.50
12967;DHT22;6548;49.996;8.238;2022-07-06T11:31:50;27.90;94.80
12967;DHT22;6548;49.996;8.238;2022-07-06T11:34:24;28.10;94.70
12967;DHT22;6548;49.996;8.238;2022-07-06T11:37:04;28.70;94.80
12967;DHT22;6548;49.996;8.238;2022-07-06T11:39:31;28.00;95.20
12967;DHT22;6548;49.996;8.238;2022-07-06T11:41:58;28.50;94.80
12967;DHT22;6548;49.996;8.238;2022-07-06T11:44:25;27.90;94.70
12967;DHT22;6548;49.996;8.238;2022-07-06T11:46:50;27.40;95.20
12967;DHT22;6548;49.996;8.238;2022-07-06T11:49:16;28.00;94.70
12967;DHT22;6548;49.996;8.238;2022-07-06T11:51:44;28.40;94.50
12967;DHT22;6548;49.996;8.238;2022-07-06T11:54:15;27.90;94.40
12967;DHT22;6548;49.996;8.238;2022-07-06T11:56:51;28.40;94.00
12967;DHT22;6548;49.996;8.238;2022-07-06T11:59:33;28.20;94.80
12967;DHT22;6548;49.996;8.238;2022-07-06T12:02:26;27.50;95.10
12967;DHT22;6548;49.996;8.238;2022-07-06T12:04:51;27.50;95.80
12967;DHT22;6548;49.996;8.238;2022-07-06T12:07:19;27.00;95.60
12967;DHT22;6548;49.996;8.238;2022-07-06T12:09:46;27.30;94.70
12967;DHT22;6548;49.996;8.238;2022-07-06T12:12:13;27.70;94.80
12967;DHT22;6548;49.996;8.238;2022-07-06T12:14:40;27.60;94.80
12967;DHT22;6548;49.996;8.238;2022-07-06T12:17:07;28.20;94.00
12967;DHT22;6548;49.996;8.238;2022-07-06T12:19:34;28.40;94.40
12967;DHT22;6548;49.996;8.238;2022-07-06T12:22:00;28.40;94.00
12967;DHT22;6548;49.996;8.238;2022-07-06T12:24:28;28.40;93.20
12967;DHT22;6548;49.996;8.238;2022-07-06T12:26:56;28.20;92.80
12967;DHT22;6548;49.996;8.238;2022-07-06T12:29:22;28.40;92.80
12967;DHT22;6548;49.996;8.238;2022-07-06T12:31:53;28.90;93.00
12967;DHT22;6548;49.996;8.238;2022-07-06T12:34:24;28.60;91.40
12967;DHT22;6548;49.996;8.238;2022-07-06T12:36:51;28.60;92.60
12967;DHT22;6548;49.996;8.238;2022-07-06T12:39:19;27.80;92.00
12967;DHT22;6548;49.996;8.238;2022-07-06T12:41:53;27.90;92.90
12967;DHT22;6548;49.996;8.238;2022-07-06T12:44:24;28.70;92.60
12967;DHT22;6548;49.996;8.238;2022-07-06T12:47:10;27.70;92.50
12967;DHT22;6548;49.996;8.238;2022-07-06T12:49:38;27.30;92.60
12967;DHT22;6548;49.996;8.238;2022-07-06T12:54:34;26.80;93.50
12967;DHT22;6548;49.996;8.238;2022-07-06T12:57:08;26.70;94.40
12967;DHT22;6548;49.996;8.238;2022-07-06T12:59:42;27.60;93.00
12967;DHT22;6548;49.996;8.238;2022-07-06T13:02:16;28.10;92.90
12967;DHT22;6548;49.996;8.238;2022-07-06T13:04:42;27.60;92.80
12967;DHT22;6548;49.996;8.238;2022-07-06T13:07:18;27.20;92.90
12967;DHT22;6548;49.996;8.238;2022-07-06T13:09:45;27.90;91.90
12967;DHT22;6548;49.996;8.238;2022-07-06T13:12:10;28.70;91.30
12967;DHT22;6548;49.996;8.238;2022-07-06T13:14:36;28.20;91.60
12967;DHT22;6548;49.996;8.238;2022-07-06T13:17:02;29.10;91.50
12967;DHT22;6548;49.996;8.238;2022-07-06T13:19:27;28.90;90.20
12967;DHT22;6548;49.996;8.238;2022-07-06T13:21:53;28.30;90.30
12967;DHT22;6548;49.996;8.238;2022-07-06T13:24:18;28.90;90.90
12967;DHT22;6548;49.996;8.238;2022-07-06T13:26:44;28.70;90.40
12967;DHT22;6548;49.996;8.238;2022-07-06T13:29:10;28.40;90.70
12967;DHT22;6548;49.996;8.238;2022-07-06T13:31:36;27.60;90.90
12967;DHT22;6548;49.996;8.238;2022-07-06T13:34:02;26.80;91.30
12967;DHT22;6548;49.996;8.238;2022-07-06T13:36:28;26.50;90.70
12967;DHT22;6548;49.996;8.238;2022-07-06T13:38:53;26.30;91.30
12967;DHT22;6548;49.996;8.238;2022-07-06T13:41:19;26.00;91.90
12967;DHT22;6548;49.996;8.238;2022-07-06T13:43:44;25.40;93.20
12967;DHT22;6548;49.996;8.238;2022-07-06T13:46:10;25.60;93.60
12967;DHT22;6548;49.996;8.238;2022-07-06T13:48:36;25.80;93.30
12967;DHT22;6548;49.996;8.238;2022-07-06T13:51:02;25.80;93.50
12967;DHT22;6548;49.996;8.238;2022-07-06T13:53:28;26.70;93.30
12967;DHT22;6548;49.996;8.238;2022-07-06T13:55:54;27.40;92.60
12967;DHT22;6548;49.996;8.238;2022-07-06T13:58:20;27.90;92.90
12967;DHT22;6548;49.996;8.238;2022-07-06T14:00:46;28.00;91.70
12967;DHT22;6548;49.996;8.238;2022-07-06T14:03:12;27.70;92.00
12967;DHT22;6548;49.996;8.238;2022-07-06T14:05:37;28.00;91.40
12967;DHT22;6548;49.996;8.238;2022-07-06T14:08:03;28.70;90.80
12967;DHT22;6548;49.996;8.238;2022-07-06T14:10:29;28.60;90.40
12967;DHT22;6548;49.996;8.238;2022-07-06T14:12:54;28.40;90.40
12967;DHT22;6548;49.996;8.238;2022-07-06T14:15:20;27.90;91.20
12967;DHT22;6548;49.996;8.238;2022-07-06T14:17:46;28.80;90.80
12967;DHT22;6548;49.996;8.238;2022-07-06T14:20:13;29.30;90.10
12967;DHT22;6548;49.996;8.238;2022-07-06T14:22:38;30.00;88.90
12967;DHT22;6548;49.996;8.238;2022-07-06T14:25:04;29.50;89.00
12967;DHT22;6548;49.996;8.238;2022-07-06T14:27:31;28.90;87.90
12967;DHT22;6548;49.996;8.238;2022-07-06T14:29:57;27.20;89.20
12967;DHT22;6548;49.996;8.238;2022-07-06T14:32:22;26.20;90.80
12967;DHT22;6548;49.996;8.238;2022-07-06T14:34:48;26.80;90.90
12967;DHT22;6548;49.996;8.238;2022-07-06T14:37:13;26.50;90.70
12967;DHT22;6548;49.996;8.238;2022-07-06T14:39:39;26.40;90.90
12967;DHT22;6548;49.996;8.238;2022-07-06T14:42:05;25.60;91.30
12967;DHT22;6548;49.996;8.238;2022-07-06T14:44:31;25.60;91.30
12967;DHT22;6548;49.996;8.238;2022-07-06T14:46:56;26.10;91.60
12967;DHT22;6548;49.996;8.238;2022-07-06T14:49:22;26.70;91.40
12967;DHT22;6548;49.996;8.238;2022-07-06T14:51:51;25.60;92.00
12967;DHT22;6548;49.996;8.238;2022-07-06T14:54:16;25.20;92.20
12967;DHT22;6548;49.996;8.238;2022-07-06T14:56:42;24.90;93.00
12967;DHT22;6548;49.996;8.238;2022-07-06T14:59:08;24.40;93.40
12967;DHT22;6548;49.996;8.238;2022-07-06T15:01:33;24.30;93.80
12967;DHT22;6548;49.996;8.238;2022-07-06T15:03:59;24.30;94.00
12967;DHT22;6548;49.996;8.238;2022-07-06T15:06:25;24.20;94.10
12967;DHT22;6548;49.996;8.238;2022-07-06T15:08:50;23.60;94.20
12967;DHT22;6548;49.996;8.238;2022-07-06T15:11:16;23.10;95.00
12967;DHT22;6548;49.996;8.238;2022-07-06T15:13:42;23.10;95.20
12967;DHT22;6548;49.996;8.238;2022-07-06T15:16:07;22.90;95.20
12967;DHT22;6548;49.996;8.238;2022-07-06T15:18:33;23.00;95.60
12967;DHT22;6548;49.996;8.238;2022-07-06T15:20:59;23.00;95.90
12967;DHT22;6548;49.996;8.238;2022-07-06T15:23:24;23.10;96.10
12967;DHT22;6548;49.996;8.238;2022-07-06T15:25:52;23.70;95.70
12967;DHT22;6548;49.996;8.238;2022-07-06T15:28:19;24.10;95.30
12967;DHT22;6548;49.996;8.238;2022-07-06T15:30:45;23.80;95.00
12967;DHT22;6548;49.996;8.238;2022-07-06T15:33:10;23.50;95.20
12967;DHT22;6548;49.996;8.238;2022-07-06T15:35:36;23.80;95.60
12967;DHT22;6548;49.996;8.238;2022-07-06T15:38:02;23.80;95.40
12967;DHT22;6548;49.996;8.238;2022-07-06T15:40:27;23.80;95.60
12967;DHT22;6548;49.996;8.238;2022-07-06T15:42:56;23.80;95.70
12967;DHT22;6548;49.996;8.238;2022-07-06T15:45:21;24.10;95.50
12967;DHT22;6548;49.996;8.238;2022-07-06T15:47:50;24.50;95.00
12967;DHT22;6548;49.996;8.238;2022-07-06T15:50:16;24.00;95.40
12967;DHT22;6548;49.996;8.238;2022-07-06T15:52:43;24.00;95.80
12967;DHT22;6548;49.996;8.238;2022-07-06T15:55:09;23.90;96.00
12967;DHT22;6548;49.996;8.238;2022-07-06T15:57:34;23.70;95.80
12967;DHT22;6548;49.996;8.238;2022-07-06T16:00:00;23.80;96.20
12967;DHT22;6548;49.996;8.238;2022-07-06T16:02:26;24.00;95.90
12967;DHT22;6548;49.996;8.238;2022-07-06T16:04:52;24.40;95.90
12967;DHT22;6548;49.996;8.238;2022-07-06T16:07:17;24.60;95.40
12967;DHT22;6548;49.996;8.238;2022-07-06T16:09:43;24.70;95.70
12967;DHT22;6548;49.996;8.238;2022-07-06T16:12:08;23.80;96.10
12967;DHT22;6548;49.996;8.238;2022-07-06T16:14:34;23.90;96.70
12967;DHT22;6548;49.996;8.238;2022-07-06T16:17:00;24.10;96.10
12967;DHT22;6548;49.996;8.238;2022-07-06T16:19:25;24.80;95.60
12967;DHT22;6548;49.996;8.238;2022-07-06T16:21:51;25.20;95.20
12967;DHT22;6548;49.996;8.238;2022-07-06T16:24:16;24.90;95.30
12967;DHT22;6548;49.996;8.238;2022-07-06T16:26:42;25.30;94.90